Time;durP1;ratioP1;P1;durP2;ratioP2;P2;SDS_P1;SDS_P2;PMS_P1;PMS_P2;Temp;Humidity;BMP_temperature;BMP_pressure;BME280_temperature;BME280_humidity;BME280_pressure;Samples;Min_cycle;Max_cycle;Signal;HPM_P1;HPM_P2
2022/10/10 00:00:43;;;;;;;7.18;5.80;;;;;;;;;;5076815;28;20194;-67
2022/10/10 00:03:11;;;;;;;7.10;6.40;;;;;;;;;;5076792;28;20199;-67
2022/10/10 00:05:40;;;;;;;6.72;6.15;;;;;;;;;;5076978;28;20303;-68
2022/10/10 00:08:07;;;;;;;7.38;6.57;;;;;;;;;;5077060;28;20198;-68
2022/10/10 00:10:35;;;;;;;14.23;6.70;;;;;;;;;;5076672;28;20207;-67
2022/10/10 00:13:02;;;;;;;10.48;6.70;;;;;;;;;;5076554;28;20634;-67
2022/10/10 00:15:29;;;;;;;9.68;6.80;;;;;;;;;;5077683;28;20217;-67
2022/10/10 00:17:57;;;;;;;14.82;7.13;;;;;;;;;;5076836;28;20206;-67
2022/10/10 00:20:24;;;;;;;7.88;6.75;;;;;;;;;;5076760;28;20200;-67
2022/10/10 00:22:52;;;;;;;8.55;6.72;;;;;;;;;;5076327;28;20200;-68
2022/10/10 00:25:20;;;;;;;15.40;8.52;;;;;;;;;;5076318;28;20715;-67
2022/10/10 00:27:47;;;;;;;8.10;7.00;;;;;;;;;;5077000;28;20194;-68
2022/10/10 00:30:15;;;;;;;8.55;6.93;;;;;;;;;;5076496;28;20201;-67
2022/10/10 00:32:42;;;;;;;7.63;6.93;;;;;;;;;;5076081;28;20194;-68
2022/10/10 00:35:09;;;;;;;9.85;6.70;;;;;;;;;;5076062;28;20681;-68
2022/10/10 00:37:36;;;;;;;10.98;6.65;;;;;;;;;;5076332;28;20655;-68
2022/10/10 00:40:06;;;;;;;7.32;6.72;;;;;;;;;;5075972;28;20198;-67
2022/10/10 00:42:33;;;;;;;9.13;7.68;;;;;;;;;;5076330;28;20198;-67
2022/10/10 00:45:21;;;;;;;8.82;6.90;;;;;;;;;;5076212;28;20205;-68
2022/10/10 00:47:50;;;;;;;13.27;7.00;;;;;;;;;;5076257;28;20186;-68
2022/10/10 00:50:18;;;;;;;9.57;6.82;;;;;;;;;;5076718;28;20219;-68
2022/10/10 00:52:45;;;;;;;7.43;6.65;;;;;;;;;;5076154;28;20194;-68
2022/10/10 00:55:14;;;;;;;8.60;6.82;;;;;;;;;;5075494;28;20222;-67
2022/10/10 00:57:42;;;;;;;10.70;6.63;;;;;;;;;;5076498;28;20194;-67
2022/10/10 01:00:09;;;;;;;7.53;6.50;;;;;;;;;;5075943;28;20204;-67
2022/10/10 01:02:37;;;;;;;7.60;6.85;;;;;;;;;;5075656;28;20204;-67
2022/10/10 01:05:04;;;;;;;7.80;6.75;;;;;;;;;;5074806;28;20211;-67
2022/10/10 01:07:32;;;;;;;7.13;6.43;;;;;;;;;;5076104;28;20197;-67
2022/10/10 01:10:00;;;;;;;7.47;6.00;;;;;;;;;;5075848;28;20197;-68
2022/10/10 01:12:39;;;;;;;13.32;6.40;;;;;;;;;;5075475;28;20290;-67
2022/10/10 01:15:09;;;;;;;7.43;6.25;;;;;;;;;;5075488;28;20205;-67
2022/10/10 01:17:40;;;;;;;10.35;6.35;;;;;;;;;;5075408;28;20205;-67
2022/10/10 01:20:26;;;;;;;9.45;6.40;;;;;;;;;;5075363;28;20192;-67
2022/10/10 01:23:00;;;;;;;13.40;6.80;;;;;;;;;;5075652;28;20221;-67
2022/10/10 01:25:29;;;;;;;8.70;6.40;;;;;;;;;;5075668;28;20277;-67
2022/10/10 01:28:01;;;;;;;7.03;6.28;;;;;;;;;;5075209;28;20200;-67
2022/10/10 01:30:31;;;;;;;7.32;6.47;;;;;;;;;;5075522;28;20182;-67
2022/10/10 01:33:03;;;;;;;9.07;6.65;;;;;;;;;;5075463;28;20239;-67
2022/10/10 01:35:37;;;;;;;8.43;7.60;;;;;;;;;;5074952;28;20700;-67
2022/10/10 01:38:09;;;;;;;14.85;6.80;;;;;;;;;;5075518;28;20267;-67
2022/10/10 01:40:44;;;;;;;7.50;6.70;;;;;;;;;;5075233;28;20189;-67
2022/10/10 01:43:12;;;;;;;8.32;6.55;;;;;;;;;;5075334;28;20189;-67
2022/10/10 01:45:45;;;;;;;8.60;7.28;;;;;;;;;;5075150;28;20200;-67
2022/10/10 01:48:13;;;;;;;8.20;6.78;;;;;;;;;;5075346;28;20306;-67
2022/10/10 01:50:47;;;;;;;8.57;6.97;;;;;;;;;;5075046;28;20203;-67
2022/10/10 01:53:16;;;;;;;10.45;6.13;;;;;;;;;;5074750;28;20183;-67
2022/10/10 01:55:49;;;;;;;7.65;6.85;;;;;;;;;;5075000;28;20233;-67
2022/10/10 01:58:26;;;;;;;8.70;6.70;;;;;;;;;;5075299;28;20195;-67
2022/10/10 02:00:59;;;;;;;10.05;6.97;;;;;;;;;;5074942;28;20184;-67
2022/10/10 02:03:28;;;;;;;9.93;6.28;;;;;;;;;;5074904;28;20275;-67
2022/10/10 02:05:59;;;;;;;9.02;6.80;;;;;;;;;;5074748;28;20235;-67
2022/10/10 02:08:29;;;;;;;8.27;7.47;;;;;;;;;;5074774;28;20194;-67
2022/10/10 02:10:59;;;;;;;8.38;7.57;;;;;;;;;;5074729;28;20540;-67
2022/10/10 02:13:31;;;;;;;9.32;7.70;;;;;;;;;;5074629;28;20201;-66
2022/10/10 02:16:01;;;;;;;10.23;6.80;;;;;;;;;;5073620;28;20220;-67
2022/10/10 02:18:30;;;;;;;7.05;6.40;;;;;;;;;;5075373;28;20197;-67
2022/10/10 02:20:58;;;;;;;7.95;7.07;;;;;;;;;;5074368;28;20215;-67
2022/10/10 02:23:25;;;;;;;10.18;6.85;;;;;;;;;;5074359;28;20197;-67
2022/10/10 02:25:53;;;;;;;9.10;8.20;;;;;;;;;;5074344;28;20238;-67
2022/10/10 02:28:23;;;;;;;9.85;7.35;;;;;;;;;;5073981;28;20207;-67
2022/10/10 02:30:52;;;;;;;9.30;7.45;;;;;;;;;;5074040;28;20627;-67
2022/10/10 02:33:23;;;;;;;10.13;6.78;;;;;;;;;;5074261;28;20196;-67
2022/10/10 02:35:51;;;;;;;8.50;7.50;;;;;;;;;;5073797;28;20214;-67
2022/10/10 02:38:19;;;;;;;17.48;7.95;;;;;;;;;;5074071;28;20200;-67
2022/10/10 02:40:47;;;;;;;8.02;7.32;;;;;;;;;;5073988;28;20196;-68
2022/10/10 02:43:16;;;;;;;10.40;8.35;;;;;;;;;;5074550;28;20203;-67
2022/10/10 02:45:43;;;;;;;9.00;8.10;;;;;;;;;;5074020;28;20295;-67
2022/10/10 02:48:11;;;;;;;9.15;8.20;;;;;;;;;;5073640;28;20212;-67
2022/10/10 02:50:39;;;;;;;8.15;7.35;;;;;;;;;;5073516;28;20626;-68
2022/10/10 02:53:06;;;;;;;9.43;7.30;;;;;;;;;;5073571;28;20197;-67
2022/10/10 02:55:34;;;;;;;8.65;7.75;;;;;;;;;;5073423;28;20222;-67
2022/10/10 02:58:01;;;;;;;10.73;8.68;;;;;;;;;;5073489;28;20203;-67
2022/10/10 03:00:28;;;;;;;8.95;7.65;;;;;;;;;;5073321;28;20205;-67
2022/10/10 03:02:55;;;;;;;7.75;6.95;;;;;;;;;;5073697;28;20283;-67
2022/10/10 03:05:23;;;;;;;7.75;7.05;;;;;;;;;;5073656;28;20203;-67
2022/10/10 03:07:51;;;;;;;8.98;6.78;;;;;;;;;;5074489;28;20222;-67
2022/10/10 03:10:19;;;;;;;8.85;7.55;;;;;;;;;;5073540;28;20197;-68
2022/10/10 03:12:46;;;;;;;7.70;6.90;;;;;;;;;;5073350;28;20658;-67
2022/10/10 03:15:13;;;;;;;10.00;7.80;;;;;;;;;;5073136;28;20212;-67
2022/10/10 03:17:40;;;;;;;9.10;8.20;;;;;;;;;;5073690;28;20550;-67
2022/10/10 03:20:08;;;;;;;10.85;8.23;;;;;;;;;;5073888;28;20226;-67
2022/10/10 03:22:35;;;;;;;9.02;8.10;;;;;;;;;;5073548;28;20243;-68
2022/10/10 03:25:04;;;;;;;8.10;6.78;;;;;;;;;;5073357;28;20252;-67
2022/10/10 03:27:32;;;;;;;9.73;7.22;;;;;;;;;;5073225;28;20196;-67
2022/10/10 03:29:59;;;;;;;8.18;7.38;;;;;;;;;;5073325;28;20195;-68
2022/10/10 03:32:27;;;;;;;11.05;8.63;;;;;;;;;;5073443;28;20193;-67
2022/10/10 03:34:54;;;;;;;12.15;7.45;;;;;;;;;;5073444;28;20650;-67
2022/10/10 03:37:21;;;;;;;10.40;8.50;;;;;;;;;;5073283;28;20198;-67
2022/10/10 03:39:48;;;;;;;7.88;7.18;;;;;;;;;;5073354;28;20193;-67
2022/10/10 03:42:17;;;;;;;12.55;7.65;;;;;;;;;;5073322;28;20206;-67
2022/10/10 03:44:44;;;;;;;8.63;7.75;;;;;;;;;;5073035;28;20204;-67
2022/10/10 03:47:11;;;;;;;15.73;8.10;;;;;;;;;;5072968;28;20197;-67
2022/10/10 03:49:38;;;;;;;8.68;7.88;;;;;;;;;;5074110;28;20198;-67
2022/10/10 03:52:05;;;;;;;13.30;7.57;;;;;;;;;;5073173;28;20198;-67
2022/10/10 03:54:33;;;;;;;8.57;7.03;;;;;;;;;;5073176;28;20203;-67
2022/10/10 03:57:00;;;;;;;7.95;7.25;;;;;;;;;;5073278;28;20221;-67
2022/10/10 03:59:28;;;;;;;22.13;7.70;;;;;;;;;;5073262;28;20200;-67
2022/10/10 04:01:55;;;;;;;8.45;7.50;;;;;;;;;;5072226;28;20673;-67
2022/10/10 04:04:23;;;;;;;9.05;6.60;;;;;;;;;;5072628;28;20655;-66
2022/10/10 04:06:50;;;;;;;8.15;6.90;;;;;;;;;;5072643;28;20672;-67
2022/10/10 04:09:17;;;;;;;8.73;7.82;;;;;;;;;;5072983;28;20193;-67
2022/10/10 04:11:45;;;;;;;14.13;8.27;;;;;;;;;;5072813;28;20193;-66
2022/10/10 04:14:12;;;;;;;13.85;7.80;;;;;;;;;;5072883;28;20200;-67
2022/10/10 04:16:40;;;;;;;9.30;8.38;;;;;;;;;;5072443;28;20221;-66
2022/10/10 04:19:07;;;;;;;10.27;6.85;;;;;;;;;;5072917;28;20193;-67
2022/10/10 04:21:35;;;;;;;11.40;8.05;;;;;;;;;;5072625;28;20211;-66
2022/10/10 04:24:03;;;;;;;8.15;7.43;;;;;;;;;;5072724;28;20235;-67
2022/10/10 04:26:30;;;;;;;7.72;6.97;;;;;;;;;;5072861;28;20205;-67
2022/10/10 04:28:57;;;;;;;8.43;7.32;;;;;;;;;;5072183;28;20672;-67
2022/10/10 04:31:25;;;;;;;7.85;7.10;;;;;;;;;;5074112;28;20215;-67
2022/10/10 04:33:53;;;;;;;10.25;8.95;;;;;;;;;;5092702;28;20201;-67
2022/10/10 04:36:20;;;;;;;9.10;7.25;;;;;;;;;;5092307;28;20220;-67
2022/10/10 04:38:47;;;;;;;14.85;8.43;;;;;;;;;;5093313;28;20200;-66
2022/10/10 04:41:15;;;;;;;11.05;8.70;;;;;;;;;;5096607;28;20653;-67
2022/10/10 04:43:42;;;;;;;8.02;7.32;;;;;;;;;;5096099;28;20200;-67
2022/10/10 04:46:09;;;;;;;10.00;7.75;;;;;;;;;;5096405;28;20206;-67
2022/10/10 04:48:37;;;;;;;8.10;7.30;;;;;;;;;;5096384;28;20242;-67
2022/10/10 04:51:05;;;;;;;8.07;7.32;;;;;;;;;;5095960;28;20202;-67
2022/10/10 04:53:33;;;;;;;8.93;7.95;;;;;;;;;;5096229;28;20197;-67
2022/10/10 04:56:00;;;;;;;10.20;7.80;;;;;;;;;;5095865;28;20627;-67
2022/10/10 04:58:27;;;;;;;11.90;7.75;;;;;;;;;;5096451;28;20195;-67
2022/10/10 05:00:55;;;;;;;8.48;7.57;;;;;;;;;;5096215;28;20202;-66
2022/10/10 05:03:23;;;;;;;8.88;7.40;;;;;;;;;;5095774;28;20219;-67
2022/10/10 05:05:50;;;;;;;11.13;7.88;;;;;;;;;;5096143;28;20225;-67
2022/10/10 05:08:19;;;;;;;7.88;6.65;;;;;;;;;;5095686;28;20196;-66
2022/10/10 05:10:47;;;;;;;7.70;6.90;;;;;;;;;;5095587;28;20199;-67
2022/10/10 05:13:15;;;;;;;9.38;7.80;;;;;;;;;;5095562;28;20204;-67
2022/10/10 05:15:43;;;;;;;12.30;7.55;;;;;;;;;;5095716;28;20226;-67
2022/10/10 05:18:11;;;;;;;8.73;7.93;;;;;;;;;;5095757;28;20200;-67
2022/10/10 05:20:38;;;;;;;8.93;8.02;;;;;;;;;;5095391;28;20200;-67
2022/10/10 05:23:05;;;;;;;8.82;7.43;;;;;;;;;;5093675;28;20196;-67
2022/10/10 05:25:34;;;;;;;8.50;7.57;;;;;;;;;;5094419;28;20223;-66
2022/10/10 05:28:01;;;;;;;13.48;8.65;;;;;;;;;;5095306;28;20195;-68
2022/10/10 05:30:28;;;;;;;13.10;8.18;;;;;;;;;;5095685;28;20206;-67
2022/10/10 05:32:55;;;;;;;13.10;7.80;;;;;;;;;;5095418;28;20200;-66
2022/10/10 05:35:22;;;;;;;9.23;7.63;;;;;;;;;;5095211;28;20679;-66
2022/10/10 05:37:50;;;;;;;9.60;8.70;;;;;;;;;;5095511;28;20548;-67
2022/10/10 05:40:17;;;;;;;12.98;8.50;;;;;;;;;;5095570;28;20501;-66
2022/10/10 05:42:45;;;;;;;8.90;8.00;;;;;;;;;;5095426;28;20200;-67
2022/10/10 05:45:12;;;;;;;10.23;9.23;;;;;;;;;;5095441;28;20197;-66
2022/10/10 05:47:40;;;;;;;11.23;7.88;;;;;;;;;;5095252;28;20293;-67
2022/10/10 05:50:08;;;;;;;11.55;8.35;;;;;;;;;;5094851;28;20197;-66
2022/10/10 05:52:35;;;;;;;11.70;8.50;;;;;;;;;;5095641;28;20563;-67
2022/10/10 05:55:02;;;;;;;13.50;8.60;;;;;;;;;;5095082;28;20203;-67
2022/10/10 05:57:29;;;;;;;12.23;9.60;;;;;;;;;;5094960;28;20264;-67
2022/10/10 05:59:58;;;;;;;14.82;8.30;;;;;;;;;;5094754;28;20192;-66
2022/10/10 06:02:28;;;;;;;14.52;8.90;;;;;;;;;;5095234;28;20297;-67
2022/10/10 06:04:55;;;;;;;15.40;8.93;;;;;;;;;;5095155;28;20199;-66
2022/10/10 06:07:22;;;;;;;15.73;9.50;;;;;;;;;;5094916;28;20290;-67
2022/10/10 06:09:49;;;;;;;12.25;7.90;;;;;;;;;;5094961;28;20196;-67
2022/10/10 06:12:16;;;;;;;9.82;8.68;;;;;;;;;;5094822;28;20197;-67
2022/10/10 06:14:43;;;;;;;15.10;9.02;;;;;;;;;;5095120;28;20192;-66
2022/10/10 06:17:12;;;;;;;16.30;9.25;;;;;;;;;;5094655;28;20569;-66
2022/10/10 06:19:39;;;;;;;36.92;10.68;;;;;;;;;;5094688;28;20559;-66
2022/10/10 06:22:07;;;;;;;14.45;8.43;;;;;;;;;;5094657;28;20224;-66
2022/10/10 06:24:34;;;;;;;16.35;11.20;;;;;;;;;;5094217;28;20265;-67
2022/10/10 06:27:01;;;;;;;16.80;10.55;;;;;;;;;;5095314;28;20273;-66
2022/10/10 06:29:28;;;;;;;14.13;10.85;;;;;;;;;;5094463;28;20192;-67
2022/10/10 06:31:56;;;;;;;16.15;10.40;;;;;;;;;;5094231;28;20200;-67
2022/10/10 06:34:24;;;;;;;11.13;8.80;;;;;;;;;;5094079;28;20198;-67
2022/10/10 06:36:51;;;;;;;16.52;9.43;;;;;;;;;;5093977;28;20698;-66
2022/10/10 06:39:19;;;;;;;15.75;9.45;;;;;;;;;;5094564;28;20253;-67
2022/10/10 06:41:46;;;;;;;15.80;10.93;;;;;;;;;;5094452;28;20531;-66
2022/10/10 06:44:14;;;;;;;23.75;11.90;;;;;;;;;;5094188;28;20557;-67
2022/10/10 06:46:41;;;;;;;24.20;14.90;;;;;;;;;;5094339;28;20197;-67
2022/10/10 06:49:08;;;;;;;14.38;11.07;;;;;;;;;;5094198;28;20197;-67
2022/10/10 06:51:37;;;;;;;26.25;11.77;;;;;;;;;;5093844;28;20200;-66
2022/10/10 06:54:04;;;;;;;23.30;11.73;;;;;;;;;;5094106;28;20199;-67
2022/10/10 06:56:32;;;;;;;26.42;13.93;;;;;;;;;;5093578;28;20212;-66
2022/10/10 06:58:59;;;;;;;29.05;15.73;;;;;;;;;;5093977;28;20252;-67
2022/10/10 07:01:26;;;;;;;28.40;16.40;;;;;;;;;;5093671;28;20203;-66
2022/10/10 07:03:53;;;;;;;40.00;20.70;;;;;;;;;;5094009;28;20200;-67
2022/10/10 07:06:21;;;;;;;29.58;15.25;;;;;;;;;;5093672;28;20201;-66
2022/10/10 07:08:49;;;;;;;31.15;14.52;;;;;;;;;;5093576;28;20246;-66
2022/10/10 07:11:17;;;;;;;19.88;13.10;;;;;;;;;;5093869;28;20205;-66
2022/10/10 07:13:44;;;;;;;18.92;11.38;;;;;;;;;;5093498;28;20232;-67
2022/10/10 07:16:11;;;;;;;30.50;11.20;;;;;;;;;;5094275;28;20705;-67
2022/10/10 07:18:38;;;;;;;14.55;9.70;;;;;;;;;;5094041;28;20192;-67
2022/10/10 07:21:06;;;;;;;19.00;11.77;;;;;;;;;;5093724;28;20207;-67
2022/10/10 07:23:35;;;;;;;13.57;9.82;;;;;;;;;;5093391;28;20206;-67
2022/10/10 07:26:04;;;;;;;10.50;8.90;;;;;;;;;;5094045;28;20201;-67
2022/10/10 07:28:32;;;;;;;13.30;8.15;;;;;;;;;;5093292;28;20197;-67
2022/10/10 07:31:00;;;;;;;13.02;9.82;;;;;;;;;;5093684;28;20193;-67
2022/10/10 07:33:32;;;;;;;8.32;7.53;;;;;;;;;;5093182;28;20235;-67
2022/10/10 07:35:59;;;;;;;12.77;8.30;;;;;;;;;;5093505;28;20222;-67
2022/10/10 07:38:26;;;;;;;10.13;7.90;;;;;;;;;;5093193;28;20932;-68
2022/10/10 07:40:53;;;;;;;11.88;7.15;;;;;;;;;;5093268;28;20203;-67
2022/10/10 07:43:22;;;;;;;13.60;7.57;;;;;;;;;;5093550;28;20194;-66
2022/10/10 07:45:49;;;;;;;8.70;6.70;;;;;;;;;;5094063;28;20292;-66
2022/10/10 07:48:16;;;;;;;9.98;7.35;;;;;;;;;;5093492;28;20194;-67
2022/10/10 07:50:44;;;;;;;17.85;6.95;;;;;;;;;;5093088;28;20230;-66
2022/10/10 07:53:11;;;;;;;12.13;6.95;;;;;;;;;;5093117;28;20200;-67
2022/10/10 07:55:39;;;;;;;9.03;7.20;;;;;;;;;;5093437;28;20271;-66
2022/10/10 07:58:06;;;;;;;11.40;7.45;;;;;;;;;;5093027;28;20487;-66
2022/10/10 08:00:36;;;;;;;10.57;8.02;;;;;;;;;;5093242;28;20219;-66
2022/10/10 08:03:03;;;;;;;9.20;6.73;;;;;;;;;;5093020;28;20194;-66
2022/10/10 08:05:30;;;;;;;9.20;7.22;;;;;;;;;;5092976;28;20444;-67
2022/10/10 08:07:57;;;;;;;7.77;6.97;;;;;;;;;;5093777;28;20201;-66
2022/10/10 08:10:25;;;;;;;8.80;6.60;;;;;;;;;;5093360;28;20439;-66
2022/10/10 08:12:52;;;;;;;8.03;6.70;;;;;;;;;;5093140;28;20443;-66
2022/10/10 08:15:19;;;;;;;9.77;7.10;;;;;;;;;;5096557;28;20446;-67
2022/10/10 08:17:47;;;;;;;10.45;6.95;;;;;;;;;;5096586;28;20485;-67
2022/10/10 08:20:15;;;;;;;9.80;7.40;;;;;;;;;;5095508;28;20198;-67
2022/10/10 08:22:42;;;;;;;12.40;7.37;;;;;;;;;;5076813;28;20444;-66
2022/10/10 08:25:09;;;;;;;7.97;6.63;;;;;;;;;;5076541;28;20479;-67
2022/10/10 08:27:36;;;;;;;6.53;5.80;;;;;;;;;;5076691;28;20445;-66
2022/10/10 08:30:04;;;;;;;8.73;7.13;;;;;;;;;;5076430;28;20448;-66
2022/10/10 08:32:31;;;;;;;9.90;7.00;;;;;;;;;;5076106;28;20968;-66
2022/10/10 08:35:00;;;;;;;10.20;7.90;;;;;;;;;;5076453;28;20444;-67
2022/10/10 08:37:33;;;;;;;11.10;6.93;;;;;;;;;;5076332;28;20476;-66
2022/10/10 08:40:00;;;;;;;7.20;6.50;;;;;;;;;;5076103;28;20428;-67
2022/10/10 08:42:30;;;;;;;8.03;7.23;;;;;;;;;;5076129;28;20436;-67
2022/10/10 08:44:59;;;;;;;8.70;6.50;;;;;;;;;;5076510;28;20807;-67
2022/10/10 08:47:31;;;;;;;9.77;7.70;;;;;;;;;;5076346;28;20459;-67
2022/10/10 08:50:02;;;;;;;11.93;7.40;;;;;;;;;;5076181;28;20438;-67
2022/10/10 08:52:32;;;;;;;11.23;6.60;;;;;;;;;;5076503;28;20428;-67
2022/10/10 08:55:01;;;;;;;15.27;6.97;;;;;;;;;;5075853;28;20451;-66
2022/10/10 08:57:30;;;;;;;10.40;6.90;;;;;;;;;;5075750;28;20502;-66
2022/10/10 09:00:00;;;;;;;9.80;6.70;;;;;;;;;;5075971;28;20447;-67
2022/10/10 09:02:33;;;;;;;9.33;7.77;;;;;;;;;;5076025;28;20451;-66
2022/10/10 09:05:02;;;;;;;8.33;6.40;;;;;;;;;;5076017;28;20451;-67
2022/10/10 09:07:34;;;;;;;10.43;6.87;;;;;;;;;;5076422;28;20531;-66
2022/10/10 09:10:08;;;;;;;11.03;7.10;;;;;;;;;;5075829;28;20955;-67
2022/10/10 09:12:40;;;;;;;9.63;6.70;;;;;;;;;;5076118;28;20431;-66
2022/10/10 09:15:13;;;;;;;10.47;6.17;;;;;;;;;;5075502;28;20437;-67
2022/10/10 09:17:43;;;;;;;9.43;6.20;;;;;;;;;;5076145;28;20482;-66
2022/10/10 09:20:18;;;;;;;7.30;5.80;;;;;;;;;;5075629;28;20441;-67
2022/10/10 09:22:52;;;;;;;9.93;6.03;;;;;;;;;;5075901;28;20765;-66
2022/10/10 09:25:22;;;;;;;8.80;5.90;;;;;;;;;;5075035;28;20982;-67
2022/10/10 09:27:55;;;;;;;8.70;5.80;;;;;;;;;;5075219;28;20966;-66
2022/10/10 09:30:24;;;;;;;6.70;6.10;;;;;;;;;;5075721;28;20442;-67
2022/10/10 09:32:53;;;;;;;12.03;6.10;;;;;;;;;;5075179;28;20440;-66
2022/10/10 09:35:23;;;;;;;12.23;6.23;;;;;;;;;;5075070;28;20441;-67
2022/10/10 09:37:51;;;;;;;7.37;5.00;;;;;;;;;;5075326;28;20481;-66
2022/10/10 09:40:24;;;;;;;7.20;5.37;;;;;;;;;;5075661;28;20805;-67
2022/10/10 09:42:51;;;;;;;8.40;6.03;;;;;;;;;;5075040;28;20443;-66
2022/10/10 09:45:20;;;;;;;8.67;5.50;;;;;;;;;;5074731;28;20466;-67
2022/10/10 09:47:49;;;;;;;8.67;5.87;;;;;;;;;;5075471;28;20445;-67
2022/10/10 09:50:17;;;;;;;13.87;6.20;;;;;;;;;;5074374;28;20497;-67
2022/10/10 09:52:46;;;;;;;9.43;7.10;;;;;;;;;;5074643;28;20447;-67
2022/10/10 09:55:20;;;;;;;7.17;6.30;;;;;;;;;;5074473;28;20465;-67
2022/10/10 09:57:48;;;;;;;6.97;5.00;;;;;;;;;;5074406;28;20475;-67
2022/10/10 10:00:26;;;;;;;7.10;4.63;;;;;;;;;;5074346;28;20453;-67
2022/10/10 10:03:04;;;;;;;5.73;5.20;;;;;;;;;;5075054;28;20438;-67
2022/10/10 10:05:32;;;;;;;6.27;4.50;;;;;;;;;;5074916;28;20433;-67
2022/10/10 10:08:00;;;;;;;6.10;5.10;;;;;;;;;;5074487;28;20800;-66
2022/10/10 10:10:29;;;;;;;5.87;4.70;;;;;;;;;;5074759;28;20449;-67
2022/10/10 10:12:57;;;;;;;5.87;4.10;;;;;;;;;;5074329;28;20937;-67
2022/10/10 10:15:25;;;;;;;5.73;4.10;;;;;;;;;;5073944;28;20441;-66
2022/10/10 10:18:07;;;;;;;6.33;3.80;;;;;;;;;;5074140;28;20496;-67
2022/10/10 10:20:35;;;;;;;6.90;4.23;;;;;;;;;;5074065;28;20503;-67
2022/10/10 10:23:05;;;;;;;9.83;4.47;;;;;;;;;;5074152;28;20447;-66
2022/10/10 10:25:34;;;;;;;9.30;4.90;;;;;;;;;;5073600;28;20505;-67
2022/10/10 10:28:15;;;;;;;8.10;4.33;;;;;;;;;;5074222;28;20834;-66
2022/10/10 10:30:43;;;;;;;11.17;5.00;;;;;;;;;;5073543;28;20929;-67
2022/10/10 10:33:15;;;;;;;7.37;4.23;;;;;;;;;;5074219;28;20440;-66
2022/10/10 10:35:45;;;;;;;6.30;4.17;;;;;;;;;;5073863;28;20429;-67
2022/10/10 10:38:23;;;;;;;5.63;3.80;;;;;;;;;;5073236;28;20476;-66
2022/10/10 10:40:57;;;;;;;9.47;4.20;;;;;;;;;;5073919;28;20430;-67
2022/10/10 10:43:33;;;;;;;9.00;4.10;;;;;;;;;;5073810;28;20873;-66
2022/10/10 10:46:05;;;;;;;7.10;3.73;;;;;;;;;;5073604;28;20438;-67
2022/10/10 10:48:40;;;;;;;7.30;3.40;;;;;;;;;;5073890;28;20439;-67
2022/10/10 10:51:14;;;;;;;8.10;4.40;;;;;;;;;;5073886;28;20866;-66
2022/10/10 10:53:49;;;;;;;4.30;3.90;;;;;;;;;;5073825;28;20430;-67
2022/10/10 10:56:23;;;;;;;5.23;3.70;;;;;;;;;;5073009;28;20446;-66
2022/10/10 10:59:09;;;;;;;6.50;3.93;;;;;;;;;;5073371;28;20474;-67
2022/10/10 11:01:41;;;;;;;9.80;3.73;;;;;;;;;;5073751;28;20430;-66
2022/10/10 11:04:13;;;;;;;7.03;3.93;;;;;;;;;;5074212;28;20434;-66
2022/10/10 11:06:49;;;;;;;7.63;3.90;;;;;;;;;;5073359;28;20434;-67
2022/10/10 11:09:21;;;;;;;11.90;3.50;;;;;;;;;;5073808;28;20435;-66
2022/10/10 11:12:04;;;;;;;5.63;3.20;;;;;;;;;;5073628;28;20439;-67
2022/10/10 11:14:39;;;;;;;8.13;3.73;;;;;;;;;;5073855;28;20525;-68
2022/10/10 11:17:08;;;;;;;5.73;3.23;;;;;;;;;;5073829;28;20437;-66
2022/10/10 11:19:38;;;;;;;7.03;3.60;;;;;;;;;;5073554;28;20485;-67
2022/10/10 11:22:08;;;;;;;10.50;3.50;;;;;;;;;;5073266;28;20442;-67
2022/10/10 11:24:41;;;;;;;9.67;3.50;;;;;;;;;;5073159;28;20470;-67
2022/10/10 11:27:12;;;;;;;6.37;2.73;;;;;;;;;;5073741;28;20432;-67
2022/10/10 11:29:47;;;;;;;3.30;3.00;;;;;;;;;;5073886;28;20910;-67
2022/10/10 11:32:16;;;;;;;6.27;2.83;;;;;;;;;;5073541;28;20439;-67
2022/10/10 11:34:45;;;;;;;9.90;3.37;;;;;;;;;;5073068;28;20538;-67
2022/10/10 11:37:14;;;;;;;4.70;2.77;;;;;;;;;;5072850;28;20443;-66
2022/10/10 11:39:46;;;;;;;13.80;3.20;;;;;;;;;;5072978;28;20482;-67
2022/10/10 11:42:16;;;;;;;7.50;3.43;;;;;;;;;;5073445;28;20428;-67
2022/10/10 11:44:46;;;;;;;7.17;3.10;;;;;;;;;;5073182;28;20934;-67
2022/10/10 11:47:15;;;;;;;8.20;2.90;;;;;;;;;;5072965;28;20931;-67
2022/10/10 11:49:46;;;;;;;12.07;2.90;;;;;;;;;;5078063;28;20478;-67
2022/10/10 11:52:18;;;;;;;4.60;3.00;;;;;;;;;;5077825;28;20437;-67
2022/10/10 11:54:51;;;;;;;10.10;3.53;;;;;;;;;;5077152;28;20450;-67
2022/10/10 11:57:19;;;;;;;4.70;2.90;;;;;;;;;;5077409;28;20438;-67
2022/10/10 11:59:48;;;;;;;3.80;3.13;;;;;;;;;;5077174;28;20531;-66
2022/10/10 12:02:19;;;;;;;5.00;2.40;;;;;;;;;;5077123;28;20447;-67
2022/10/10 12:04:46;;;;;;;4.37;2.57;;;;;;;;;;5077389;28;20450;-67
2022/10/10 12:07:15;;;;;;;3.97;3.00;;;;;;;;;;5077056;28;20450;-67
2022/10/10 12:09:44;;;;;;;9.03;3.27;;;;;;;;;;5077263;28;20456;-66
2022/10/10 12:12:14;;;;;;;5.33;2.40;;;;;;;;;;5077549;28;20451;-67
2022/10/10 12:14:45;;;;;;;5.17;2.73;;;;;;;;;;5077194;28;20439;-67
2022/10/10 12:17:19;;;;;;;3.63;2.60;;;;;;;;;;5077617;28;20458;-67
2022/10/10 12:19:48;;;;;;;5.77;3.10;;;;;;;;;;5076504;28;20470;-67
2022/10/10 12:22:22;;;;;;;9.33;3.20;;;;;;;;;;5076944;28;20890;-67
2022/10/10 12:25:07;;;;;;;5.77;3.03;;;;;;;;;;5076391;28;20473;-67
2022/10/10 12:27:46;;;;;;;4.63;2.90;;;;;;;;;;5076638;28;20461;-67
2022/10/10 12:30:22;;;;;;;5.20;2.80;;;;;;;;;;5076586;28;20801;-67
2022/10/10 12:32:52;;;;;;;5.00;2.60;;;;;;;;;;5076902;28;20785;-67
2022/10/10 12:35:30;;;;;;;7.33;3.27;;;;;;;;;;5077359;28;20433;-67
2022/10/10 12:38:09;;;;;;;8.37;3.17;;;;;;;;;;5076432;28;20447;-67
2022/10/10 12:41:00;;;;;;;9.30;2.90;;;;;;;;;;5076095;28;20931;-67
2022/10/10 12:43:37;;;;;;;5.00;3.37;;;;;;;;;;5076328;28;20457;-67
2022/10/10 12:46:24;;;;;;;5.90;3.10;;;;;;;;;;5076067;28;20435;-67
2022/10/10 12:49:00;;;;;;;4.47;3.07;;;;;;;;;;5076314;28;20443;-66
2022/10/10 12:51:28;;;;;;;5.33;3.40;;;;;;;;;;5075990;28;20482;-67
2022/10/10 12:53:57;;;;;;;6.23;3.40;;;;;;;;;;5076092;28;20448;-66
2022/10/10 12:56:35;;;;;;;4.73;3.50;;;;;;;;;;5075785;28;20549;-67
2022/10/10 12:59:05;;;;;;;11.13;3.90;;;;;;;;;;5075064;28;21007;-67
2022/10/10 13:01:34;;;;;;;6.43;3.80;;;;;;;;;;5076260;28;20444;-67
2022/10/10 13:04:01;;;;;;;7.43;3.57;;;;;;;;;;5076139;28;20441;-67
2022/10/10 13:06:32;;;;;;;15.43;3.80;;;;;;;;;;5076007;28;20469;-65
2022/10/10 13:09:02;;;;;;;4.93;3.17;;;;;;;;;;5076188;28;20442;-65
2022/10/10 13:11:29;;;;;;;13.20;3.60;;;;;;;;;;5075696;28;20467;-64
2022/10/10 13:13:57;;;;;;;4.73;3.37;;;;;;;;;;5075465;28;20442;-65
2022/10/10 13:16:27;;;;;;;11.33;3.93;;;;;;;;;;5075527;28;20450;-64
2022/10/10 13:18:55;;;;;;;7.10;3.47;;;;;;;;;;5075876;28;20481;-65
2022/10/10 13:21:24;;;;;;;5.83;3.83;;;;;;;;;;5075705;28;20444;-64
2022/10/10 13:23:53;;;;;;;5.60;3.20;;;;;;;;;;5075275;28;20446;-65
2022/10/10 13:26:23;;;;;;;6.63;3.70;;;;;;;;;;5075578;28;20450;-65
2022/10/10 13:28:51;;;;;;;6.93;3.70;;;;;;;;;;5074473;28;20459;-65
2022/10/10 13:31:18;;;;;;;4.20;2.90;;;;;;;;;;5075006;28;20443;-65
2022/10/10 13:33:47;;;;;;;4.57;2.73;;;;;;;;;;5074980;28;20529;-65
2022/10/10 13:36:21;;;;;;;6.17;3.20;;;;;;;;;;5075401;28;20446;-65
2022/10/10 13:38:49;;;;;;;6.83;3.20;;;;;;;;;;5075224;28;20497;-65
2022/10/10 13:41:17;;;;;;;5.33;2.80;;;;;;;;;;5075178;28;20434;-65
2022/10/10 13:43:45;;;;;;;5.77;2.53;;;;;;;;;;5075267;28;20481;-65
2022/10/10 13:46:21;;;;;;;5.13;2.83;;;;;;;;;;5074829;28;20542;-66
2022/10/10 13:48:50;;;;;;;3.10;2.80;;;;;;;;;;5075307;28;20443;-65
2022/10/10 13:51:19;;;;;;;4.77;2.50;;;;;;;;;;5075023;28;20451;-65
2022/10/10 13:53:53;;;;;;;4.90;3.10;;;;;;;;;;5074909;28;20444;-65
2022/10/10 13:56:23;;;;;;;3.43;2.50;;;;;;;;;;5075199;28;20544;-65
2022/10/10 13:58:51;;;;;;;5.83;2.80;;;;;;;;;;5092078;28;20488;-65
2022/10/10 14:01:36;;;;;;;5.70;2.93;;;;;;;;;;5095020;28;20495;-65
2022/10/10 14:04:17;;;;;;;9.93;4.03;;;;;;;;;;5094959;28;20430;-64
2022/10/10 14:06:49;;;;;;;8.13;3.67;;;;;;;;;;5095208;28;20425;-65
2022/10/10 14:09:19;;;;;;;7.40;4.00;;;;;;;;;;5094772;28;20438;-65
2022/10/10 14:11:46;;;;;;;5.67;2.93;;;;;;;;;;5094586;28;20524;-65
2022/10/10 14:14:17;;;;;;;9.60;3.67;;;;;;;;;;5094421;28;20460;-65
2022/10/10 14:16:44;;;;;;;9.60;3.00;;;;;;;;;;5094984;28;20426;-65
2022/10/10 14:19:18;;;;;;;3.93;2.77;;;;;;;;;;5094147;28;20486;-65
2022/10/10 14:21:45;;;;;;;6.60;3.37;;;;;;;;;;5095239;28;20437;-64
2022/10/10 14:24:12;;;;;;;6.50;3.20;;;;;;;;;;5094087;28;20472;-65
2022/10/10 14:26:39;;;;;;;9.43;4.80;;;;;;;;;;5094179;28;20930;-65
2022/10/10 14:29:10;;;;;;;3.83;3.40;;;;;;;;;;5094130;28;20482;-64
2022/10/10 14:31:38;;;;;;;8.10;3.57;;;;;;;;;;5094230;28;20472;-66
2022/10/10 14:34:05;;;;;;;3.97;3.10;;;;;;;;;;5094296;28;20446;-66
2022/10/10 14:36:33;;;;;;;7.87;3.20;;;;;;;;;;5094381;28;20523;-64
2022/10/10 14:39:01;;;;;;;6.00;3.20;;;;;;;;;;5094080;28;20480;-65
2022/10/10 14:41:28;;;;;;;6.60;3.60;;;;;;;;;;5094089;28;20437;-65
2022/10/10 14:43:55;;;;;;;7.50;3.00;;;;;;;;;;5093734;28;20991;-65
2022/10/10 14:46:23;;;;;;;6.67;3.50;;;;;;;;;;5093986;28;20443;-65
2022/10/10 14:48:50;;;;;;;6.50;3.50;;;;;;;;;;5093943;28;20448;-65
2022/10/10 14:51:17;;;;;;;5.03;3.50;;;;;;;;;;5093444;28;20819;-65